createdAt,value
2019-02-26T00:01:26.085Z,11.20
2019-02-26T00:03:56.377Z,11.85
2019-02-26T00:06:30.134Z,12.10
2019-02-26T00:09:01.823Z,11.22
2019-02-26T00:11:36.182Z,11.28
2019-02-26T00:14:07.451Z,11.35
2019-02-26T00:16:39.986Z,12.43
2019-02-26T00:19:11.941Z,11.35
2019-02-26T00:21:45.662Z,12.45
2019-02-26T00:24:16.859Z,12.30
2019-02-26T00:26:47.971Z,12.60
2019-02-26T00:29:18.699Z,13.37
2019-02-26T00:31:50.785Z,13.40
2019-02-26T00:34:21.909Z,13.90
2019-02-26T00:36:52.624Z,11.05
2019-02-26T00:39:24.972Z,12.80
2019-02-26T00:41:56.298Z,11.18
2019-02-26T00:44:29.888Z,12.15
2019-02-26T00:47:04.317Z,15.90
2019-02-26T00:49:34.376Z,12.37
2019-02-26T00:52:08.712Z,12.13
2019-02-26T00:54:40.158Z,12.47
2019-02-26T00:57:11.439Z,10.67
2019-02-26T00:59:45.785Z,11.73
2019-02-26T01:02:17.065Z,13.25
2019-02-26T01:04:48.538Z,11.33
2019-02-26T01:07:23.849Z,10.14
2019-02-26T01:09:56.893Z,10.65
2019-02-26T01:12:27.727Z,11.33
2019-02-26T01:14:58.719Z,12.73
2019-02-26T01:17:31.251Z,13.45
2019-02-26T01:20:05.362Z,10.23
2019-02-26T01:22:37.646Z,10.07
2019-02-26T01:25:10.116Z,10.38
2019-02-26T01:27:41.371Z,10.82
2019-02-26T01:30:18.157Z,10.53
2019-02-26T01:32:47.483Z,9.93
2019-02-26T01:35:18.350Z,10.58
2019-02-26T01:37:51.325Z,12.37
2019-02-26T01:40:24.008Z,9.60
2019-02-26T01:42:57.933Z,9.73
2019-02-26T01:45:30.484Z,11.53
2019-02-26T01:48:01.520Z,10.80
2019-02-26T01:50:33.455Z,10.70
2019-02-26T01:53:05.907Z,10.50
2019-02-26T01:55:36.675Z,12.63
2019-02-26T01:58:07.457Z,10.13
2019-02-26T02:00:38.667Z,10.58
2019-02-26T02:03:10.718Z,13.48
2019-02-26T02:05:43.295Z,10.28
2019-02-26T02:08:15.565Z,12.10
2019-02-26T02:10:46.665Z,11.25
2019-02-26T02:13:17.409Z,11.93
2019-02-26T02:15:48.126Z,10.03
2019-02-26T02:18:20.670Z,10.90
2019-02-26T02:20:51.391Z,10.73
2019-02-26T02:23:23.568Z,10.73
2019-02-26T02:25:55.041Z,11.08
2019-02-26T02:28:26.338Z,11.80
2019-02-26T02:30:58.831Z,15.40
2019-02-26T02:33:32.075Z,13.30
2019-02-26T02:36:02.462Z,12.98
2019-02-26T02:38:36.507Z,11.93
2019-02-26T02:41:05.783Z,11.97
2019-02-26T02:43:36.646Z,10.72
2019-02-26T02:46:07.371Z,10.25
2019-02-26T02:48:38.654Z,10.37
2019-02-26T02:51:13.149Z,10.30
2019-02-26T02:53:41.922Z,12.28
2019-02-26T02:56:15.150Z,12.50
2019-02-26T02:58:46.878Z,11.18
2019-02-26T03:01:21.790Z,10.50
2019-02-26T03:03:50.558Z,13.15
2019-02-26T03:06:24.245Z,15.65
2019-02-26T03:08:55.524Z,9.60
2019-02-26T03:11:26.234Z,9.63
2019-02-26T03:13:57.056Z,11.20
2019-02-26T03:16:28.094Z,11.65
2019-02-26T03:18:59.326Z,12.67
2019-02-26T03:21:31.447Z,11.03
2019-02-26T03:24:03.376Z,10.03
2019-02-26T03:26:34.985Z,10.48
2019-02-26T03:29:05.921Z,10.65
2019-02-26T03:31:40.555Z,14.40
2019-02-26T03:34:14.713Z,9.58
2019-02-26T03:36:45.395Z,11.45
2019-02-26T03:39:15.202Z,12.87
2019-02-26T03:41:48.495Z,12.35
2019-02-26T03:44:19.199Z,11.90
2019-02-26T03:46:49.947Z,12.53
2019-02-26T03:49:20.665Z,13.27
2019-02-26T03:51:51.346Z,13.32
2019-02-26T03:54:22.118Z,10.82
2019-02-26T03:56:52.998Z,10.50
2019-02-26T03:59:24.729Z,11.38
2019-02-26T04:01:55.514Z,11.88
2019-02-26T04:04:28.393Z,12.68
2019-02-26T04:07:01.197Z,10.48
2019-02-26T04:09:31.692Z,11.68
2019-02-26T04:12:02.713Z,10.93
2019-02-26T04:14:33.779Z,11.00
2019-02-26T04:17:06.446Z,12.18
2019-02-26T04:19:38.177Z,12.58
2019-02-26T04:22:48.884Z,10.25
2019-02-26T04:25:22.247Z,12.18
2019-02-26T04:27:59.914Z,12.40
2019-02-26T04:31:12.183Z,11.30
2019-02-26T04:34:08.582Z,14.13
2019-02-26T04:37:13.702Z,9.98
2019-02-26T04:40:20.634Z,11.25
2019-02-26T04:43:34.141Z,10.57
2019-02-26T04:46:25.531Z,11.33
2019-02-26T04:48:57.881Z,12.77
2019-02-26T04:51:29.600Z,12.68
2019-02-26T04:54:02.143Z,12.50
2019-02-26T04:56:36.375Z,13.35
2019-02-26T04:59:09.314Z,13.68
2019-02-26T05:01:39.081Z,10.58
2019-02-26T05:04:10.078Z,11.65
2019-02-26T05:06:40.974Z,11.50
2019-02-26T05:09:12.341Z,12.20
2019-02-26T05:11:43.079Z,10.80
2019-02-26T05:14:15.403Z,11.83
2019-02-26T05:16:46.789Z,11.48
2019-02-26T05:19:21.238Z,11.03
2019-02-26T05:21:50.433Z,10.23
2019-02-26T05:24:23.788Z,9.73
2019-02-26T05:26:54.859Z,11.20
2019-02-26T05:29:26.093Z,12.07
2019-02-26T05:31:58.890Z,10.75
2019-02-26T05:34:29.345Z,11.57
2019-02-26T05:37:02.197Z,12.13
2019-02-26T05:39:32.880Z,12.95
2019-02-26T05:42:06.189Z,10.58
2019-02-26T05:44:36.061Z,11.83
2019-02-26T05:47:07.354Z,13.15
2019-02-26T05:49:40.749Z,10.88
2019-02-26T05:52:10.916Z,13.67
2019-02-26T05:54:41.904Z,12.00
2019-02-26T05:57:25.918Z,11.18
2019-02-26T05:59:46.148Z,11.55
2019-02-26T06:02:19.145Z,12.78
2019-02-26T06:04:49.762Z,10.72
2019-02-26T06:07:24.140Z,14.07
2019-02-26T06:09:56.169Z,13.25
2019-02-26T06:12:26.048Z,11.90
2019-02-26T06:15:00.704Z,13.88
2019-02-26T06:17:30.087Z,11.63
2019-02-26T06:20:11.055Z,12.80
2019-02-26T06:22:42.216Z,11.70
2019-02-26T06:25:18.659Z,11.70
2019-02-26T06:27:45.990Z,13.30
2019-02-26T06:30:16.916Z,11.33
2019-02-26T06:32:47.700Z,11.25
2019-02-26T06:35:19.331Z,13.72
2019-02-26T06:37:51.580Z,12.43
2019-02-26T06:40:22.354Z,12.80
2019-02-26T06:42:53.121Z,11.80
2019-02-26T06:45:24.219Z,12.95
2019-02-26T06:47:56.397Z,11.60
2019-02-26T06:50:27.421Z,12.53
2019-02-26T06:52:58.179Z,11.97
2019-02-26T06:55:28.898Z,13.20
2019-02-26T06:58:26.273Z,16.60
2019-02-26T07:00:58.933Z,13.13
2019-02-26T07:03:30.006Z,12.20
2019-02-26T07:06:03.200Z,16.12
2019-02-26T07:08:33.413Z,14.18
2019-02-26T07:11:04.551Z,15.40
2019-02-26T07:13:36.709Z,14.80
2019-02-26T07:16:09.208Z,12.70
2019-02-26T07:18:40.023Z,14.23
2019-02-26T07:21:10.732Z,16.07
2019-02-26T07:23:41.467Z,17.93
2019-02-26T07:26:13.641Z,14.53
2019-02-26T07:28:46.402Z,19.42
2019-02-26T07:31:18.207Z,20.23
2019-02-26T07:33:51.026Z,14.70
2019-02-26T07:36:23.611Z,17.50
2019-02-26T07:38:56.458Z,17.50
2019-02-26T07:41:29.830Z,15.63
2019-02-26T07:44:00.012Z,14.28
2019-02-26T07:46:32.837Z,15.00
2019-02-26T07:49:04.755Z,15.93
2019-02-26T07:51:38.070Z,16.65
2019-02-26T07:54:09.063Z,18.15
2019-02-26T07:56:39.782Z,15.08
2019-02-26T07:59:12.452Z,12.45
2019-02-26T08:01:45.257Z,12.90
2019-02-26T08:04:18.325Z,14.07
2019-02-26T08:06:48.846Z,14.73
2019-02-26T08:09:23.124Z,11.45
2019-02-26T08:11:52.545Z,11.12
2019-02-26T08:14:25.119Z,11.60
2019-02-26T08:16:56.771Z,15.10
2019-02-26T08:19:29.707Z,13.55
2019-02-26T08:22:00.931Z,13.50
2019-02-26T08:24:32.007Z,17.30
2019-02-26T08:27:03.419Z,12.90
2019-02-26T08:29:36.192Z,14.33
2019-02-26T08:32:07.246Z,15.28
2019-02-26T08:34:39.764Z,14.63
2019-02-26T08:37:10.755Z,15.23
2019-02-26T08:39:41.487Z,12.98
2019-02-26T08:42:12.959Z,14.13
2019-02-26T08:44:46.228Z,11.35
2019-02-26T08:47:18.654Z,12.10
2019-02-26T08:49:49.184Z,9.80
2019-02-26T08:52:22.837Z,10.72
2019-02-26T08:54:53.007Z,9.75
2019-02-26T08:57:24.042Z,11.05
2019-02-26T08:59:54.792Z,11.50
2019-02-26T09:02:25.631Z,12.03
2019-02-26T09:04:59.146Z,11.30
2019-02-26T09:07:30.129Z,9.25
2019-02-26T09:10:00.830Z,10.63
2019-02-26T09:12:31.613Z,10.15
2019-02-26T09:15:04.019Z,12.23
2019-02-26T09:17:36.994Z,10.72
2019-02-26T09:20:12.340Z,11.35
2019-02-26T09:22:45.818Z,13.28
2019-02-26T09:25:16.147Z,11.57
2019-02-26T09:27:47.063Z,11.10
2019-02-26T09:30:18.323Z,14.07
2019-02-26T09:32:52.305Z,13.62
2019-02-26T09:35:27.042Z,13.55
2019-02-26T09:38:00.737Z,14.13
2019-02-26T09:40:33.448Z,16.80
2019-02-26T09:43:02.537Z,12.75
2019-02-26T09:45:33.427Z,12.10
2019-02-26T09:48:04.362Z,13.10
2019-02-26T09:50:36.753Z,14.83
2019-02-26T09:53:08.157Z,12.63
2019-02-26T09:55:38.949Z,14.07
2019-02-26T09:58:09.949Z,12.73
2019-02-26T10:00:42.920Z,12.28
2019-02-26T10:03:15.083Z,11.65
2019-02-26T10:05:47.800Z,14.63
2019-02-26T10:08:19.997Z,12.07
2019-02-26T10:10:54.195Z,11.80
2019-02-26T10:13:27.738Z,10.13
2019-02-26T10:16:00.848Z,11.15
2019-02-26T10:18:32.995Z,12.68
2019-02-26T10:21:05.980Z,12.60
2019-02-26T10:23:36.368Z,11.23
2019-02-26T10:26:09.992Z,11.10
2019-02-26T10:28:42.670Z,15.32
2019-02-26T10:31:12.546Z,13.05
2019-02-26T10:33:45.776Z,13.50
2019-02-26T10:36:18.285Z,11.48
2019-02-26T10:38:50.902Z,16.15
2019-02-26T10:41:22.119Z,12.40
2019-02-26T10:43:52.941Z,11.75
2019-02-26T10:46:23.770Z,10.60
2019-02-26T10:48:55.471Z,11.95
2019-02-26T10:51:27.247Z,10.53
2019-02-26T10:53:59.966Z,12.28
2019-02-26T10:56:33.369Z,12.88
2019-02-26T10:59:05.924Z,12.70
2019-02-26T11:01:35.596Z,11.25
2019-02-26T11:04:06.542Z,10.83
2019-02-26T11:06:39.786Z,10.82
2019-02-26T11:09:17.348Z,11.48
2019-02-26T11:11:45.751Z,9.75
2019-02-26T11:14:17.533Z,9.23
2019-02-26T11:16:48.934Z,10.05
2019-02-26T11:19:19.692Z,6.83
2019-02-26T11:21:55.406Z,7.83
2019-02-26T11:24:25.721Z,6.58
2019-02-26T11:26:56.263Z,6.55
2019-02-26T11:29:28.534Z,8.58
2019-02-26T11:32:01.695Z,6.85
2019-02-26T11:34:33.969Z,5.75
2019-02-26T11:37:08.916Z,5.58
2019-02-26T11:39:38.132Z,7.95
2019-02-26T11:42:10.481Z,5.47
2019-02-26T11:44:41.472Z,5.70
2019-02-26T11:47:13.723Z,5.08
2019-02-26T11:49:46.641Z,6.05
2019-02-26T11:52:19.606Z,8.63
2019-02-26T11:54:49.988Z,6.72
2019-02-26T11:57:20.787Z,6.55
2019-02-26T11:59:51.618Z,4.72
2019-02-26T12:02:26.678Z,7.17
2019-02-26T12:04:54.951Z,7.05
2019-02-26T12:07:27.424Z,8.05
2019-02-26T12:10:04.677Z,5.97
2019-02-26T12:12:34.227Z,6.50
2019-02-26T12:15:07.341Z,7.67
2019-02-26T12:17:39.687Z,7.78
2019-02-26T12:20:14.634Z,7.70
2019-02-26T12:22:47.967Z,5.60
2019-02-26T12:25:17.785Z,6.10
2019-02-26T12:27:48.641Z,6.12
2019-02-26T12:30:20.671Z,8.30
2019-02-26T12:32:54.449Z,6.43
2019-02-26T12:35:24.838Z,5.28
2019-02-26T12:37:59.351Z,6.03
2019-02-26T12:40:28.626Z,7.78
2019-02-26T12:43:02.014Z,6.07
2019-02-26T12:45:35.123Z,8.13
2019-02-26T12:48:06.454Z,7.67
2019-02-26T12:50:40.465Z,8.18
2019-02-26T12:53:14.969Z,9.98
2019-02-26T12:55:44.106Z,7.25
2019-02-26T12:58:17.629Z,7.80
2019-02-26T13:00:47.607Z,6.70
2019-02-26T13:05:51.780Z,8.65
2019-02-26T13:08:24.274Z,8.65
2019-02-26T13:10:58.254Z,8.53
2019-02-26T13:13:28.187Z,7.33
2019-02-26T13:15:58.927Z,10.30
2019-02-26T13:18:30.684Z,9.83
2019-02-26T13:21:03.865Z,9.30
2019-02-26T13:23:34.398Z,9.33
2019-02-26T13:26:08.304Z,9.28
2019-02-26T13:28:38.784Z,7.95
2019-02-26T13:31:13.738Z,8.43
2019-02-26T13:33:43.024Z,9.65
2019-02-26T13:36:14.926Z,8.48
2019-02-26T13:38:48.971Z,7.93
2019-02-26T13:43:50.658Z,9.00
2019-02-26T13:46:21.703Z,8.65
2019-02-26T13:48:52.512Z,10.18
2019-02-26T13:51:23.423Z,8.53
2019-02-26T13:53:54.206Z,10.18
2019-02-26T13:56:25.082Z,11.40
2019-02-26T13:58:55.908Z,12.53
2019-02-26T14:01:26.836Z,9.13
2019-02-26T14:03:57.599Z,10.65
2019-02-26T14:06:29.730Z,11.10
2019-02-26T14:09:00.550Z,9.65
2019-02-26T14:11:33.304Z,9.15
2019-02-26T14:14:04.236Z,10.45
2019-02-26T14:16:35.561Z,9.90
2019-02-26T14:19:06.823Z,10.48
2019-02-26T14:21:37.670Z,9.28
2019-02-26T14:24:08.428Z,10.05
2019-02-26T14:26:39.180Z,12.13
2019-02-26T14:29:10.197Z,9.40
2019-02-26T14:31:41.238Z,11.18
2019-02-26T14:34:12.069Z,10.65
2019-02-26T14:36:43.162Z,9.70
2019-02-26T14:39:14.280Z,9.90
2019-02-26T14:41:45.185Z,10.63
2019-02-26T14:44:16.026Z,9.55
2019-02-26T14:46:46.963Z,9.98
2019-02-26T14:49:17.728Z,10.95
2019-02-26T14:51:48.530Z,10.07
2019-02-26T14:54:19.398Z,10.18
2019-02-26T14:56:50.239Z,8.93
2019-02-26T14:59:21.011Z,10.18
2019-02-26T15:01:52.062Z,10.35
2019-02-26T15:04:22.987Z,11.68
2019-02-26T15:06:55.847Z,11.03
2019-02-26T15:09:26.877Z,11.05
2019-02-26T15:11:57.863Z,11.20
2019-02-26T15:14:28.764Z,9.00
2019-02-26T15:16:59.601Z,11.40
2019-02-26T15:19:30.347Z,9.20
2019-02-26T15:22:01.103Z,9.10
2019-02-26T15:24:33.032Z,9.50
2019-02-26T15:27:03.877Z,10.53
2019-02-26T15:29:34.969Z,10.10
2019-02-26T15:32:06.019Z,11.45
2019-02-26T15:34:36.881Z,10.98
2019-02-26T15:37:07.732Z,9.27
2019-02-26T15:39:39.504Z,11.08
2019-02-26T15:42:10.294Z,8.73
2019-02-26T15:44:41.103Z,10.28
2019-02-26T15:47:11.903Z,10.58
2019-02-26T15:49:42.737Z,10.45
2019-02-26T15:52:13.528Z,10.72
2019-02-26T15:54:44.407Z,9.73
2019-02-26T15:57:15.256Z,9.27
2019-02-26T15:59:46.246Z,10.53
2019-02-26T16:02:17.188Z,10.28
2019-02-26T16:04:48.000Z,8.43
2019-02-26T16:07:18.871Z,9.50
2019-02-26T16:09:49.760Z,8.60
2019-02-26T16:12:20.889Z,6.58
2019-02-26T16:14:52.383Z,7.05
2019-02-26T16:17:23.207Z,7.60
2019-02-26T16:19:54.276Z,8.25
2019-02-26T16:22:25.053Z,10.10
2019-02-26T16:24:55.954Z,9.00
2019-02-26T16:27:26.763Z,8.88
2019-02-26T16:29:57.724Z,9.13
2019-02-26T16:32:28.507Z,8.83
2019-02-26T16:35:00.378Z,9.70
2019-02-26T16:37:32.432Z,7.33
2019-02-26T16:40:03.344Z,6.50
2019-02-26T16:42:34.231Z,8.77
2019-02-26T16:45:06.063Z,6.47
2019-02-26T16:47:37.419Z,7.67
2019-02-26T16:50:13.172Z,6.65
2019-02-26T16:52:42.941Z,6.17
2019-02-26T16:55:17.119Z,9.13
2019-02-26T16:57:46.776Z,7.58
2019-02-26T17:00:20.544Z,7.80
2019-02-26T17:02:51.599Z,7.15
2019-02-26T17:05:22.832Z,9.10
2019-02-26T17:07:54.012Z,9.08
2019-02-26T17:10:29.124Z,9.38
2019-02-26T17:13:01.767Z,7.20
2019-02-26T17:15:30.410Z,6.72
2019-02-26T17:18:01.332Z,8.67
2019-02-26T17:20:33.466Z,8.03
2019-02-26T17:23:04.920Z,7.80
2019-02-26T17:25:35.772Z,6.43
2019-02-26T17:28:06.704Z,8.43
2019-02-26T17:30:37.716Z,6.90
2019-02-26T17:33:11.401Z,7.25
2019-02-26T17:35:41.505Z,6.72
2019-02-26T17:38:12.919Z,7.35
2019-02-26T17:40:45.265Z,7.00
2019-02-26T17:43:17.187Z,8.63
2019-02-26T17:45:48.117Z,9.50
2019-02-26T17:48:18.941Z,7.78
2019-02-26T17:50:49.955Z,8.43
2019-02-26T17:53:20.796Z,7.47
2019-02-26T17:55:51.832Z,9.58
2019-02-26T17:58:22.702Z,8.48
2019-02-26T18:00:56.289Z,9.08
2019-02-26T18:03:28.276Z,9.18
2019-02-26T18:06:00.095Z,9.55
2019-02-26T18:08:30.916Z,8.90
2019-02-26T18:11:01.822Z,10.13
2019-02-26T18:13:32.826Z,10.55
2019-02-26T18:16:09.059Z,10.05
2019-02-26T18:18:37.000Z,9.55
2019-02-26T18:21:07.908Z,8.53
2019-02-26T18:23:38.691Z,9.63
2019-02-26T18:26:09.587Z,7.58
2019-02-26T18:28:40.794Z,13.72
2019-02-26T18:31:11.605Z,12.40
2019-02-26T18:33:42.627Z,11.80
2019-02-26T18:36:13.505Z,10.70
2019-02-26T18:38:48.330Z,13.13
2019-02-26T18:41:17.330Z,10.78
2019-02-26T18:43:48.170Z,12.85
2019-02-26T18:46:19.979Z,11.22
2019-02-26T18:48:50.882Z,12.83
2019-02-26T18:51:21.654Z,12.60
2019-02-26T18:53:52.594Z,13.45
2019-02-26T18:56:23.428Z,12.98
2019-02-26T18:58:54.337Z,14.75
2019-02-26T19:01:25.435Z,11.28
2019-02-26T19:03:56.323Z,12.07
2019-02-26T19:06:27.510Z,12.18
2019-02-26T19:08:58.477Z,14.87
2019-02-26T19:11:29.398Z,11.68
2019-02-26T19:14:00.314Z,12.95
2019-02-26T19:16:31.082Z,13.80
2019-02-26T19:19:03.149Z,12.85
2019-02-26T19:21:34.019Z,11.90
2019-02-26T19:24:05.227Z,10.85
2019-02-26T19:26:36.159Z,11.12
2019-02-26T19:29:07.350Z,12.58
2019-02-26T19:31:38.211Z,15.43
2019-02-26T19:34:09.293Z,13.53
2019-02-26T19:36:40.151Z,12.78
2019-02-26T19:39:11.079Z,14.25
2019-02-26T19:41:45.265Z,14.98
2019-02-26T19:44:14.776Z,11.28
2019-02-26T19:46:49.414Z,14.00
2019-02-26T19:49:18.216Z,13.38
2019-02-26T19:51:49.103Z,13.38
2019-02-26T19:54:19.885Z,12.70
2019-02-26T19:56:50.689Z,14.98
2019-02-26T19:59:21.446Z,16.00
2019-02-26T20:01:52.841Z,12.98
2019-02-26T20:04:23.675Z,17.45
2019-02-26T20:06:58.476Z,13.90
2019-02-26T20:09:27.257Z,14.53
2019-02-26T20:11:58.447Z,14.37
2019-02-26T20:14:29.252Z,12.10
2019-02-26T20:17:04.922Z,16.77
2019-02-26T20:19:32.725Z,15.90
2019-02-26T20:22:03.594Z,13.78
2019-02-26T20:24:34.464Z,15.35
2019-02-26T20:27:05.346Z,16.07
2019-02-26T20:29:36.220Z,16.87
2019-02-26T20:32:08.065Z,16.13
2019-02-26T20:34:39.182Z,17.27
2019-02-26T20:37:10.200Z,14.47
2019-02-26T20:39:43.574Z,15.13
2019-02-26T20:42:13.787Z,13.32
2019-02-26T20:44:46.425Z,14.30
2019-02-26T20:47:17.284Z,14.20
2019-02-26T20:49:48.162Z,14.87
2019-02-26T20:52:19.189Z,14.65
2019-02-26T20:54:50.319Z,16.57
2019-02-26T20:57:21.175Z,15.27
2019-02-26T20:59:52.452Z,15.63
2019-02-26T21:02:23.778Z,15.83
2019-02-26T21:04:54.857Z,14.38
2019-02-26T21:07:26.010Z,17.27
2019-02-26T21:10:04.044Z,16.05
2019-02-26T21:12:39.807Z,17.02
2019-02-26T21:15:13.885Z,20.88
2019-02-26T21:17:45.387Z,20.27
2019-02-26T21:20:16.489Z,19.17
2019-02-26T21:22:48.280Z,16.40
2019-02-26T21:25:19.088Z,18.27
2019-02-26T21:27:50.222Z,15.07
2019-02-26T21:30:21.696Z,16.23
2019-02-26T21:32:52.485Z,15.72
2019-02-26T21:35:23.386Z,16.55
2019-02-26T21:37:54.682Z,15.70
2019-02-26T21:40:25.597Z,18.32
2019-02-26T21:42:56.543Z,17.73
2019-02-26T21:45:29.204Z,15.08
2019-02-26T21:48:02.576Z,16.57
2019-02-26T21:50:32.765Z,14.58
2019-02-26T21:53:03.741Z,17.32
2019-02-26T21:55:43.989Z,14.15
2019-02-26T21:58:07.523Z,15.18
2019-02-26T22:00:39.050Z,17.12
2019-02-26T22:03:10.875Z,14.63
2019-02-26T22:05:41.854Z,18.30
2019-02-26T22:08:12.931Z,19.40
2019-02-26T22:10:43.957Z,18.60
2019-02-26T22:13:15.013Z,20.17
2019-02-26T22:15:46.141Z,15.80
2019-02-26T22:18:17.089Z,16.65
2019-02-26T22:20:48.194Z,17.60
2019-02-26T22:23:19.081Z,16.77
2019-02-26T22:25:52.553Z,17.98
2019-02-26T22:28:23.113Z,15.58
2019-02-26T22:30:55.906Z,16.97
2019-02-26T22:33:27.174Z,18.32
2019-02-26T22:35:59.952Z,17.53
2019-02-26T22:38:30.515Z,16.62
2019-02-26T22:41:02.294Z,15.58
2019-02-26T22:43:34.207Z,15.90
2019-02-26T22:46:05.135Z,15.38
2019-02-26T22:48:35.994Z,17.42
2019-02-26T22:51:06.960Z,15.72
2019-02-26T22:53:37.926Z,16.15
2019-02-26T22:56:08.753Z,17.77
2019-02-26T22:58:39.601Z,16.63
2019-02-26T23:01:18.554Z,15.87
2019-02-26T23:03:51.221Z,18.05
2019-02-26T23:06:22.183Z,17.50
2019-02-26T23:08:53.195Z,15.70
2019-02-26T23:11:24.841Z,17.90
2019-02-26T23:13:56.428Z,15.00
2019-02-26T23:16:28.943Z,16.27
2019-02-26T23:19:01.349Z,16.10
2019-02-26T23:21:33.675Z,16.57
2019-02-26T23:24:05.127Z,17.57
2019-02-26T23:26:36.437Z,18.77
2019-02-26T23:29:07.373Z,17.77
2019-02-26T23:31:38.200Z,16.57
2019-02-26T23:34:09.142Z,14.83
2019-02-26T23:36:40.239Z,15.98
2019-02-26T23:39:14.007Z,17.17
2019-02-26T23:41:46.492Z,15.60
2019-02-26T23:44:18.113Z,17.07
2019-02-26T23:46:49.658Z,16.27
2019-02-26T23:49:21.248Z,14.70
2019-02-26T23:51:53.707Z,17.62
2019-02-26T23:54:24.772Z,18.77
2019-02-26T23:56:55.759Z,16.52
2019-02-26T23:59:26.658Z,16.67
